James Cook — MLRM6 — position and weather

sailwx.info

Track history (hours):
 
Tides and Currents Weather Stations Pressure Air Temp Water Temp Dewpoint Dewpoint Depression Visibility Wind Speed Wind Dir Waves Ship Positions

Oceanographic research ship James Cook (UK)

Last reported at 2017-Apr-30 20:30 UTC. Time now 2017-Apr-30 20:36 UTC.
Position N 16°20' W 062°26'.

Length 89.2 m; beam 18.6 m; draft 5.7 m.

MMSI: 235010700.

Date/timePositionNaut miles runAvg speedWind from/ knotsBaromVisibWave heightAir tempDewpointWater temp
2017-Apr-30 20:30N 16°20' W 062°26'3 5.5
2017-Apr-30 20:00N 16°18' W 062°28'147 4.5
2017-Apr-29 11:00N 14°00' W 061°36'96 2.0 090 / 151014.210.8 28.022.427.6
2017-Apr-27 11:00N 12°24' W 061°30'118 4.9 130 / 131012.110.8 27.523.327.2
2017-Apr-26 11:00N 14°18' W 061°00'72 5.4 090 / 171011.610.8 27.523.227.7
2017-Apr-25 21:45N 15°23' W 061°33'2 4.9
2017-Apr-25 21:27N 15°24' W 061°33'10 5.1
2017-Apr-25 19:30N 15°33' W 061°37'3 5.3
2017-Apr-25 18:53N 15°36' W 061°38'4 5.2
2017-Apr-25 18:08N 15°40' W 061°40'1 4.8
2017-Apr-25 17:57N 15°41' W 061°40'2 4.9
2017-Apr-25 17:31N 15°43' W 061°41'3 4.8
2017-Apr-25 16:59N 15°45' W 061°43'4 4.8
2017-Apr-25 16:07N 15°49' W 061°45'1 4.7
2017-Apr-25 16:01N 15°49' W 061°45'2 4.6
2017-Apr-25 15:31N 15°51' W 061°46'3 5.1
2017-Apr-25 15:01N 15°53' W 061°47'3 5.5
2017-Apr-25 14:30N 15°56' W 061°48'6 5.7
2017-Apr-25 13:30N 16°01' W 061°51'3 5.6
2017-Apr-25 13:00N 16°03' W 061°52'3 5.8
2017-Apr-25 12:31N 16°06' W 061°54'3 6.2
2017-Apr-25 12:00N 16°09' W 061°55'3 6.0
2017-Apr-25 11:31N 16°11' W 061°57'3 5.5
2017-Apr-25 11:00N 16°14' W 061°58'3 5.4
2017-Apr-25 10:31N 16°16' W 061°59'3 5.2
2017-Apr-25 10:01N 16°18' W 062°01'3 5.3
2017-Apr-25 09:31N 16°20' W 062°03'3 5.5
2017-Apr-25 09:01N 16°22' W 062°05'2 4.9
2017-Apr-25 08:31N 16°24' W 062°06'2 4.6
2017-Apr-25 08:00N 16°26' W 062°08'2 4.4
2017-Apr-25 07:31N 16°28' W 062°09'2 4.4
2017-Apr-25 07:01N 16°29' W 062°11'2 4.5
2017-Apr-25 06:31N 16°31' W 062°13'2 4.4
2017-Apr-25 06:01N 16°32' W 062°14'2 4.4
2017-Apr-25 05:31N 16°34' W 062°16'2 4.3
2017-Apr-25 05:00N 16°36' W 062°17'4 4.3
2017-Apr-25 04:09N 16°38' W 062°20'1 4.4
2017-Apr-25 04:01N 16°39' W 062°20'2 4.4
2017-Apr-25 03:31N 16°40' W 062°22'2 4.4
2017-Apr-25 03:01N 16°42' W 062°23'2 4.4
2017-Apr-25 02:31N 16°44' W 062°25'2 4.7
2017-Apr-25 02:00N 16°45' W 062°27'12 4.1
2017-Apr-24 23:00N 16°54' W 062°36'53 5.3 110 / 19 10.8 27.222.526.9
2017-Apr-24 12:58N 17°34' W 063°14'21 4.3
2017-Apr-24 08:08N 17°48' W 063°29'1 4.3
2017-Apr-24 07:51N 17°49' W 063°30'3 6.3
2017-Apr-24 07:27N 17°52' W 063°29'3 6.4
2017-Apr-24 06:59N 17°55' W 063°29'3 6.6
2017-Apr-24 06:30N 17°58' W 063°28'3 6.7
2017-Apr-24 05:59N 18°01' W 063°27'3 6.7
2017-Apr-24 05:28N 18°05' W 063°27'3 6.7
2017-Apr-24 05:00N 18°08' W 063°26'3 6.7
2017-Apr-24 04:29N 18°11' W 063°25'37 6.8
2017-Apr-23 23:00N 18°48' W 063°18'90 7.5 100 / 221012.910.8 25.619.326.3
2017-Apr-23 11:00N 20°18' W 063°12'96 8.0 100 / 191015.010.8 24.518.026.2
2017-Apr-22 23:00N 21°54' W 063°12'33 2.7 100 / 121016.210.8 23.514.425.8
2017-Apr-22 11:00N 22°18' W 063°36'53 4.4 060 / 81015.910.8 23.512.225.9
2017-Apr-21 23:00N 22°36' W 064°30'53 4.4 070 / 81014.910.8 23.515.225.9
2017-Apr-21 11:00N 22°54' W 065°24'65 5.0 060 / 111015.510.8 23.216.224.7
2017-Apr-20 22:00N 23°18' W 066°30'   070 / 101015.310.8 23.116.425.4
Track history (hours):
 
Tides and Currents Weather Stations Pressure Air Temp Water Temp Dewpoint Dewpoint Depression Visibility Wind Speed Wind Dir Waves Ship Positions

Oceanographic research ship James Cook (UK)

Last reported at 2017-Apr-30 20:30 UTC. Time now 2017-Apr-30 20:36 UTC.
Position N 16°20' W 062°26'.

Length 89.2 m; beam 18.6 m; draft 5.7 m.

MMSI: 235010700.

Date/timePositionNaut miles runAvg speedWind from/ knotsBaromVisibWave heightAir tempDewpointWater temp
2017-Apr-30 20:30N 16°20' W 062°26'3 5.5
2017-Apr-30 20:00N 16°18' W 062°28'147 4.5
2017-Apr-29 11:00N 14°00' W 061°36'96 2.0 090 / 151014.210.8 28.022.427.6
2017-Apr-27 11:00N 12°24' W 061°30'118 4.9 130 / 131012.110.8 27.523.327.2
2017-Apr-26 11:00N 14°18' W 061°00'72 5.4 090 / 171011.610.8 27.523.227.7
2017-Apr-25 21:45N 15°23' W 061°33'2 4.9
2017-Apr-25 21:27N 15°24' W 061°33'10 5.1
2017-Apr-25 19:30N 15°33' W 061°37'3 5.3
2017-Apr-25 18:53N 15°36' W 061°38'4 5.2
2017-Apr-25 18:08N 15°40' W 061°40'1 4.8
2017-Apr-25 17:57N 15°41' W 061°40'2 4.9
2017-Apr-25 17:31N 15°43' W 061°41'3 4.8
2017-Apr-25 16:59N 15°45' W 061°43'4 4.8
2017-Apr-25 16:07N 15°49' W 061°45'1 4.7
2017-Apr-25 16:01N 15°49' W 061°45'2 4.6
2017-Apr-25 15:31N 15°51' W 061°46'3 5.1
2017-Apr-25 15:01N 15°53' W 061°47'3 5.5
2017-Apr-25 14:30N 15°56' W 061°48'6 5.7
2017-Apr-25 13:30N 16°01' W 061°51'3 5.6
2017-Apr-25 13:00N 16°03' W 061°52'3 5.8
2017-Apr-25 12:31N 16°06' W 061°54'3 6.2
2017-Apr-25 12:00N 16°09' W 061°55'3 6.0
2017-Apr-25 11:31N 16°11' W 061°57'3 5.5
2017-Apr-25 11:00N 16°14' W 061°58'3 5.4
2017-Apr-25 10:31N 16°16' W 061°59'3 5.2
2017-Apr-25 10:01N 16°18' W 062°01'3 5.3
2017-Apr-25 09:31N 16°20' W 062°03'3 5.5
2017-Apr-25 09:01N 16°22' W 062°05'2 4.9
2017-Apr-25 08:31N 16°24' W 062°06'2 4.6
2017-Apr-25 08:00N 16°26' W 062°08'2 4.4
2017-Apr-25 07:31N 16°28' W 062°09'2 4.4
2017-Apr-25 07:01N 16°29' W 062°11'2 4.5
2017-Apr-25 06:31N 16°31' W 062°13'2 4.4
2017-Apr-25 06:01N 16°32' W 062°14'2 4.4
2017-Apr-25 05:31N 16°34' W 062°16'2 4.3
2017-Apr-25 05:00N 16°36' W 062°17'4 4.3
2017-Apr-25 04:09N 16°38' W 062°20'1 4.4
2017-Apr-25 04:01N 16°39' W 062°20'2 4.4
2017-Apr-25 03:31N 16°40' W 062°22'2 4.4
2017-Apr-25 03:01N 16°42' W 062°23'2 4.4
2017-Apr-25 02:31N 16°44' W 062°25'2 4.7
2017-Apr-25 02:00N 16°45' W 062°27'12 4.1
2017-Apr-24 23:00N 16°54' W 062°36'53 5.3 110 / 19 10.8 27.222.526.9
2017-Apr-24 12:58N 17°34' W 063°14'21 4.3
2017-Apr-24 08:08N 17°48' W 063°29'1 4.3
2017-Apr-24 07:51N 17°49' W 063°30'3 6.3
2017-Apr-24 07:27N 17°52' W 063°29'3 6.4
2017-Apr-24 06:59N 17°55' W 063°29'3 6.6
2017-Apr-24 06:30N 17°58' W 063°28'3 6.7
2017-Apr-24 05:59N 18°01' W 063°27'3 6.7
2017-Apr-24 05:28N 18°05' W 063°27'3 6.7
2017-Apr-24 05:00N 18°08' W 063°26'3 6.7
2017-Apr-24 04:29N 18°11' W 063°25'37 6.8
2017-Apr-23 23:00N 18°48' W 063°18'90 7.5 100 / 221012.910.8 25.619.326.3
2017-Apr-23 11:00N 20°18' W 063°12'96 8.0 100 / 191015.010.8 24.518.026.2
2017-Apr-22 23:00N 21°54' W 063°12'33 2.7 100 / 121016.210.8 23.514.425.8
2017-Apr-22 11:00N 22°18' W 063°36'53 4.4 060 / 81015.910.8 23.512.225.9
2017-Apr-21 23:00N 22°36' W 064°30'53 4.4 070 / 81014.910.8 23.515.225.9
2017-Apr-21 11:00N 22°54' W 065°24'65 5.0 060 / 111015.510.8 23.216.224.7
2017-Apr-20 22:00N 23°18' W 066°30'   070 / 101015.310.8 23.116.425.4

Dump ship's entire track history